sensor_id;sensor_type;location;lat;lon;timestamp;noise_LAeq;noise_LA_min;noise_LA_max;noise_LA01;noise_LA95
37161;Laerm;67371;52.624;13.544;2023-02-28T00:01:07;58.16;33.65;75.78;;
37161;Laerm;67371;52.624;13.544;2023-02-28T00:03:33;37.06;32.44;42.11;;
37161;Laerm;67371;52.624;13.544;2023-02-28T00:06:00;34.54;31.26;39.44;;
37161;Laerm;67371;52.624;13.544;2023-02-28T00:08:25;37.39;31.43;45.97;;
37161;Laerm;67371;52.624;13.544;2023-02-28T00:10:51;53.61;32.26;71.51;;
37161;Laerm;67371;52.624;13.544;2023-02-28T00:13:17;57.73;30.89;76.63;;
37161;Laerm;67371;52.624;13.544;2023-02-28T00:15:42;34.41;30.52;41.21;;
37161;Laerm;67371;52.624;13.544;2023-02-28T00:18:07;54.26;33.27;73.70;;
37161;Laerm;67371;52.624;13.544;2023-02-28T00:20:32;52.73;33.66;71.48;;
37161;Laerm;67371;52.624;13.544;2023-02-28T00:22:58;39.16;34.09;48.30;;
37161;Laerm;67371;52.624;13.544;2023-02-28T00:25:24;59.69;31.75;75.13;;
37161;Laerm;67371;52.624;13.544;2023-02-28T00:27:49;57.59;33.56;73.83;;
37161;Laerm;67371;52.624;13.544;2023-02-28T00:30:16;38.46;32.87;49.68;;
37161;Laerm;67371;52.624;13.544;2023-02-28T00:32:41;35.67;31.95;43.78;;
37161;Laerm;67371;52.624;13.544;2023-02-28T00:35:06;53.92;31.80;70.27;;
37161;Laerm;67371;52.624;13.544;2023-02-28T00:37:32;58.93;36.81;76.34;;
37161;Laerm;67371;52.624;13.544;2023-02-28T00:39:57;36.42;29.90;44.47;;
37161;Laerm;67371;52.624;13.544;2023-02-28T00:42:23;34.49;30.07;40.49;;
37161;Laerm;67371;52.624;13.544;2023-02-28T00:44:48;54.92;31.31;75.48;;
37161;Laerm;67371;52.624;13.544;2023-02-28T00:47:13;38.12;32.44;51.24;;
37161;Laerm;67371;52.624;13.544;2023-02-28T00:49:39;35.87;31.75;41.36;;
37161;Laerm;67371;52.624;13.544;2023-02-28T00:52:04;56.89;30.46;74.49;;
37161;Laerm;67371;52.624;13.544;2023-02-28T00:54:29;33.30;30.33;37.40;;
37161;Laerm;67371;52.624;13.544;2023-02-28T00:56:55;33.70;30.20;38.75;;
37161;Laerm;67371;52.624;13.544;2023-02-28T00:59:20;52.31;30.59;66.52;;
37161;Laerm;67371;52.624;13.544;2023-02-28T01:01:46;60.03;31.17;77.50;;
37161;Laerm;67371;52.624;13.544;2023-02-28T01:04:12;34.13;29.84;39.55;;
37161;Laerm;67371;52.624;13.544;2023-02-28T01:06:37;53.95;29.69;73.21;;
37161;Laerm;67371;52.624;13.544;2023-02-28T01:09:03;33.22;29.95;42.64;;
37161;Laerm;67371;52.624;13.544;2023-02-28T01:11:29;53.31;29.94;69.95;;
37161;Laerm;67371;52.624;13.544;2023-02-28T01:13:54;57.52;31.23;73.37;;
37161;Laerm;67371;52.624;13.544;2023-02-28T01:16:19;57.71;30.49;77.26;;
37161;Laerm;67371;52.624;13.544;2023-02-28T01:18:44;39.81;31.85;59.52;;
37161;Laerm;67371;52.624;13.544;2023-02-28T01:21:11;36.59;32.93;41.71;;
37161;Laerm;67371;52.624;13.544;2023-02-28T01:23:37;36.36;33.12;40.17;;
37161;Laerm;67371;52.624;13.544;2023-02-28T01:26:07;40.40;34.41;49.22;;
37161;Laerm;67371;52.624;13.544;2023-02-28T01:28:32;53.48;33.94;71.59;;
37161;Laerm;67371;52.624;13.544;2023-02-28T01:30:58;59.39;32.91;73.63;;
37161;Laerm;67371;52.624;13.544;2023-02-28T01:33:23;56.61;30.31;74.44;;
37161;Laerm;67371;52.624;13.544;2023-02-28T01:35:48;36.78;32.63;41.42;;
37161;Laerm;67371;52.624;13.544;2023-02-28T01:38:16;34.34;30.88;38.76;;
37161;Laerm;67371;52.624;13.544;2023-02-28T01:40:41;36.84;32.26;42.88;;
37161;Laerm;67371;52.624;13.544;2023-02-28T01:43:16;51.63;33.92;72.49;;
37161;Laerm;67371;52.624;13.544;2023-02-28T01:45:44;36.25;32.91;41.05;;
37161;Laerm;67371;52.624;13.544;2023-02-28T01:48:09;56.72;33.09;74.15;;
37161;Laerm;67371;52.624;13.544;2023-02-28T01:50:36;58.77;32.04;77.25;;
37161;Laerm;67371;52.624;13.544;2023-02-28T01:53:04;53.51;32.71;72.56;;
37161;Laerm;67371;52.624;13.544;2023-02-28T01:55:30;58.76;31.71;77.77;;
37161;Laerm;67371;52.624;13.544;2023-02-28T01:57:58;59.20;33.22;74.89;;
37161;Laerm;67371;52.624;13.544;2023-02-28T02:00:25;37.88;32.83;51.89;;
37161;Laerm;67371;52.624;13.544;2023-02-28T02:02:58;37.04;33.00;41.37;;
37161;Laerm;67371;52.624;13.544;2023-02-28T02:05:25;54.96;33.21;72.06;;
37161;Laerm;67371;52.624;13.544;2023-02-28T02:07:52;40.04;33.03;55.35;;
37161;Laerm;67371;52.624;13.544;2023-02-28T02:15:34;56.88;34.19;71.62;;
37161;Laerm;67371;52.624;13.544;2023-02-28T02:18:46;61.96;33.41;79.45;;
37161;Laerm;67371;52.624;13.544;2023-02-28T02:20:54;58.24;33.69;73.91;;
37161;Laerm;67371;52.624;13.544;2023-02-28T02:25:58;60.13;34.08;75.67;;
37161;Laerm;67371;52.624;13.544;2023-02-28T02:33:46;59.78;37.59;74.77;;
37161;Laerm;67371;52.624;13.544;2023-02-28T02:39:19;52.43;33.62;69.90;;
37161;Laerm;67371;52.624;13.544;2023-02-28T02:44:15;56.04;34.77;70.83;;
37161;Laerm;67371;52.624;13.544;2023-02-28T02:46:44;59.03;34.86;73.41;;
37161;Laerm;67371;52.624;13.544;2023-02-28T02:49:11;56.44;32.57;73.81;;
37161;Laerm;67371;52.624;13.544;2023-02-28T02:51:38;57.54;35.62;75.67;;
37161;Laerm;67371;52.624;13.544;2023-02-28T02:54:06;39.21;35.90;48.20;;
37161;Laerm;67371;52.624;13.544;2023-02-28T02:56:33;58.21;37.40;74.53;;
37161;Laerm;67371;52.624;13.544;2023-02-28T02:59:04;52.97;34.33;72.23;;
37161;Laerm;67371;52.624;13.544;2023-02-28T03:01:32;57.62;37.13;74.19;;
37161;Laerm;67371;52.624;13.544;2023-02-28T03:04:03;55.70;35.19;72.56;;
37161;Laerm;67371;52.624;13.544;2023-02-28T03:06:30;57.76;36.11;74.64;;
37161;Laerm;67371;52.624;13.544;2023-02-28T03:08:55;59.61;34.62;75.18;;
37161;Laerm;67371;52.624;13.544;2023-02-28T03:11:21;58.59;35.26;76.96;;
37161;Laerm;67371;52.624;13.544;2023-02-28T03:23:54;42.39;37.83;48.52;;
37161;Laerm;67371;52.624;13.544;2023-02-28T03:26:24;57.41;37.22;74.29;;
37161;Laerm;67371;52.624;13.544;2023-02-28T03:31:27;59.44;41.04;70.94;;
37161;Laerm;67371;52.624;13.544;2023-02-28T03:34:06;62.18;42.08;76.33;;
37161;Laerm;67371;52.624;13.544;2023-02-28T03:36:37;62.93;43.22;77.95;;
37161;Laerm;67371;52.624;13.544;2023-02-28T03:39:09;64.77;43.84;79.09;;
37161;Laerm;67371;52.624;13.544;2023-02-28T03:41:44;64.31;43.59;76.73;;
37161;Laerm;67371;52.624;13.544;2023-02-28T03:44:21;65.43;49.32;77.15;;
37161;Laerm;67371;52.624;13.544;2023-02-28T03:47:21;62.16;43.04;77.27;;
37161;Laerm;67371;52.624;13.544;2023-02-28T03:50:23;65.61;41.56;79.37;;
37161;Laerm;67371;52.624;13.544;2023-02-28T03:52:29;63.47;43.50;77.22;;
37161;Laerm;67371;52.624;13.544;2023-02-28T03:54:59;61.58;45.18;73.53;;
37161;Laerm;67371;52.624;13.544;2023-02-28T03:57:32;64.75;44.88;78.79;;
37161;Laerm;67371;52.624;13.544;2023-02-28T04:00:00;61.18;41.98;72.73;;
37161;Laerm;67371;52.624;13.544;2023-02-28T04:02:29;64.53;44.99;75.82;;
37161;Laerm;67371;52.624;13.544;2023-02-28T04:04:54;66.97;45.38;81.10;;
37161;Laerm;67371;52.624;13.544;2023-02-28T04:07:22;66.38;45.16;76.76;;
37161;Laerm;67371;52.624;13.544;2023-02-28T04:09:47;65.26;47.22;77.50;;
37161;Laerm;67371;52.624;13.544;2023-02-28T04:12:12;65.32;45.12;74.57;;
37161;Laerm;67371;52.624;13.544;2023-02-28T04:14:38;65.79;49.16;74.49;;
37161;Laerm;67371;52.624;13.544;2023-02-28T04:17:03;66.00;45.91;74.87;;
37161;Laerm;67371;52.624;13.544;2023-02-28T04:19:28;68.33;48.40;77.86;;
37161;Laerm;67371;52.624;13.544;2023-02-28T04:21:53;66.11;46.56;76.59;;
37161;Laerm;67371;52.624;13.544;2023-02-28T04:24:21;64.01;44.71;77.97;;
37161;Laerm;67371;52.624;13.544;2023-02-28T04:26:47;65.81;45.80;75.34;;
37161;Laerm;67371;52.624;13.544;2023-02-28T04:29:17;64.87;45.93;76.04;;
37161;Laerm;67371;52.624;13.544;2023-02-28T04:31:43;66.12;45.92;76.99;;
37161;Laerm;67371;52.624;13.544;2023-02-28T04:34:08;67.48;46.43;77.29;;
37161;Laerm;67371;52.624;13.544;2023-02-28T04:36:33;63.66;45.65;74.53;;
37161;Laerm;67371;52.624;13.544;2023-02-28T04:38:58;64.95;46.29;75.77;;
37161;Laerm;67371;52.624;13.544;2023-02-28T04:41:24;67.44;51.14;75.44;;
37161;Laerm;67371;52.624;13.544;2023-02-28T04:43:50;67.06;47.70;75.35;;
37161;Laerm;67371;52.624;13.544;2023-02-28T04:46:15;64.81;47.95;75.67;;
37161;Laerm;67371;52.624;13.544;2023-02-28T04:48:42;65.92;46.20;75.15;;
37161;Laerm;67371;52.624;13.544;2023-02-28T04:51:09;67.08;46.94;76.94;;
37161;Laerm;67371;52.624;13.544;2023-02-28T04:53:35;66.75;48.49;80.46;;
37161;Laerm;67371;52.624;13.544;2023-02-28T04:56:01;69.41;52.32;78.29;;
37161;Laerm;67371;52.624;13.544;2023-02-28T04:58:26;68.73;51.56;75.81;;
37161;Laerm;67371;52.624;13.544;2023-02-28T05:00:53;68.87;52.56;76.45;;
37161;Laerm;67371;52.624;13.544;2023-02-28T05:03:18;67.27;49.22;76.90;;
37161;Laerm;67371;52.624;13.544;2023-02-28T05:05:45;66.68;49.85;80.86;;
37161;Laerm;67371;52.624;13.544;2023-02-28T05:08:10;68.30;51.82;78.29;;
37161;Laerm;67371;52.624;13.544;2023-02-28T05:10:36;69.75;52.12;80.12;;
37161;Laerm;67371;52.624;13.544;2023-02-28T05:13:01;68.22;51.12;78.91;;
37161;Laerm;67371;52.624;13.544;2023-02-28T05:15:27;69.36;53.41;78.08;;
37161;Laerm;67371;52.624;13.544;2023-02-28T05:17:53;69.79;52.81;84.36;;
37161;Laerm;67371;52.624;13.544;2023-02-28T05:20:18;67.15;50.52;78.61;;
37161;Laerm;67371;52.624;13.544;2023-02-28T05:22:43;68.11;49.50;78.18;;
37161;Laerm;67371;52.624;13.544;2023-02-28T05:25:18;68.52;52.18;79.89;;
37161;Laerm;67371;52.624;13.544;2023-02-28T05:27:44;69.74;49.48;78.88;;
37161;Laerm;67371;52.624;13.544;2023-02-28T05:30:09;68.50;51.74;75.87;;
37161;Laerm;67371;52.624;13.544;2023-02-28T05:32:38;69.99;52.42;82.77;;
37161;Laerm;67371;52.624;13.544;2023-02-28T05:35:04;69.21;52.60;80.06;;
37161;Laerm;67371;52.624;13.544;2023-02-28T05:37:29;66.73;50.06;76.20;;
37161;Laerm;67371;52.624;13.544;2023-02-28T05:39:55;71.08;51.30;86.27;;
37161;Laerm;67371;52.624;13.544;2023-02-28T05:42:20;69.69;51.40;78.59;;
37161;Laerm;67371;52.624;13.544;2023-02-28T05:44:45;69.29;50.58;77.42;;
37161;Laerm;67371;52.624;13.544;2023-02-28T05:47:10;68.77;50.08;78.05;;
37161;Laerm;67371;52.624;13.544;2023-02-28T05:49:37;69.25;52.80;80.41;;
37161;Laerm;67371;52.624;13.544;2023-02-28T05:52:02;70.48;53.69;78.37;;
37161;Laerm;67371;52.624;13.544;2023-02-28T05:54:28;69.95;52.27;82.90;;
37161;Laerm;67371;52.624;13.544;2023-02-28T05:56:53;69.61;51.68;79.03;;
37161;Laerm;67371;52.624;13.544;2023-02-28T05:59:18;69.25;51.35;82.97;;
37161;Laerm;67371;52.624;13.544;2023-02-28T06:01:44;70.39;55.44;79.06;;
37161;Laerm;67371;52.624;13.544;2023-02-28T06:04:13;67.28;51.08;75.83;;
37161;Laerm;67371;52.624;13.544;2023-02-28T06:06:39;66.67;49.21;76.06;;
37161;Laerm;67371;52.624;13.544;2023-02-28T06:09:05;70.61;53.74;79.60;;
37161;Laerm;67371;52.624;13.544;2023-02-28T06:11:30;70.54;53.83;79.20;;
37161;Laerm;67371;52.624;13.544;2023-02-28T06:13:56;71.99;51.40;81.67;;
37161;Laerm;67371;52.624;13.544;2023-02-28T06:16:22;69.01;50.92;76.42;;
37161;Laerm;67371;52.624;13.544;2023-02-28T06:18:47;69.17;51.17;80.06;;
37161;Laerm;67371;52.624;13.544;2023-02-28T06:21:15;70.09;53.02;84.78;;
37161;Laerm;67371;52.624;13.544;2023-02-28T06:23:40;70.32;53.10;78.65;;
37161;Laerm;67371;52.624;13.544;2023-02-28T06:26:05;70.63;53.80;79.35;;
37161;Laerm;67371;52.624;13.544;2023-02-28T06:28:31;68.22;52.34;77.04;;
37161;Laerm;67371;52.624;13.544;2023-02-28T06:30:56;69.72;52.72;80.35;;
37161;Laerm;67371;52.624;13.544;2023-02-28T06:33:21;69.87;51.31;79.94;;
37161;Laerm;67371;52.624;13.544;2023-02-28T06:35:47;69.74;52.27;77.32;;
37161;Laerm;67371;52.624;13.544;2023-02-28T06:38:14;69.05;50.93;78.45;;
37161;Laerm;67371;52.624;13.544;2023-02-28T06:40:40;69.18;51.14;79.11;;
37161;Laerm;67371;52.624;13.544;2023-02-28T06:43:05;73.00;57.50;86.48;;
37161;Laerm;67371;52.624;13.544;2023-02-28T06:45:30;70.38;52.43;82.70;;
37161;Laerm;67371;52.624;13.544;2023-02-28T06:47:55;68.88;53.00;76.52;;
37161;Laerm;67371;52.624;13.544;2023-02-28T06:50:21;70.21;52.13;78.80;;
37161;Laerm;67371;52.624;13.544;2023-02-28T06:52:46;70.64;53.52;78.93;;
37161;Laerm;67371;52.624;13.544;2023-02-28T06:55:11;69.19;50.45;79.50;;
37161;Laerm;67371;52.624;13.544;2023-02-28T06:57:37;70.54;50.71;82.82;;
37161;Laerm;67371;52.624;13.544;2023-02-28T07:00:04;69.69;52.42;77.75;;
37161;Laerm;67371;52.624;13.544;2023-02-28T07:02:30;69.35;53.29;83.04;;
37161;Laerm;67371;52.624;13.544;2023-02-28T07:04:56;66.56;51.67;74.87;;
37161;Laerm;67371;52.624;13.544;2023-02-28T07:07:21;69.14;52.34;84.18;;
37161;Laerm;67371;52.624;13.544;2023-02-28T07:09:46;69.94;52.32;78.10;;
37161;Laerm;67371;52.624;13.544;2023-02-28T07:12:12;67.93;49.41;77.83;;
37161;Laerm;67371;52.624;13.544;2023-02-28T07:14:37;67.59;48.67;77.85;;
37161;Laerm;67371;52.624;13.544;2023-02-28T07:17:02;69.00;50.46;80.58;;
37161;Laerm;67371;52.624;13.544;2023-02-28T07:19:28;70.06;50.05;79.09;;
37161;Laerm;67371;52.624;13.544;2023-02-28T07:21:53;70.13;48.49;86.87;;
37161;Laerm;67371;52.624;13.544;2023-02-28T07:24:18;68.27;48.16;79.64;;
37161;Laerm;67371;52.624;13.544;2023-02-28T07:26:44;69.39;48.35;79.87;;
37161;Laerm;67371;52.624;13.544;2023-02-28T07:29:09;66.75;47.04;77.27;;
37161;Laerm;67371;52.624;13.544;2023-02-28T07:31:34;69.62;47.72;80.52;;
37161;Laerm;67371;52.624;13.544;2023-02-28T07:33:59;69.01;47.83;79.96;;
37161;Laerm;67371;52.624;13.544;2023-02-28T07:36:24;66.30;44.82;75.79;;
37161;Laerm;67371;52.624;13.544;2023-02-28T07:38:50;68.28;44.76;78.39;;
37161;Laerm;67371;52.624;13.544;2023-02-28T07:41:15;65.63;44.49;76.45;;
37161;Laerm;67371;52.624;13.544;2023-02-28T07:43:41;69.10;44.62;76.20;;
37161;Laerm;67371;52.624;13.544;2023-02-28T07:46:08;68.66;44.04;78.84;;
37161;Laerm;67371;52.624;13.544;2023-02-28T07:48:33;70.53;47.12;80.54;;
37161;Laerm;67371;52.624;13.544;2023-02-28T07:50:59;67.52;43.94;76.02;;
37161;Laerm;67371;52.624;13.544;2023-02-28T07:53:24;69.55;46.42;79.46;;
37161;Laerm;67371;52.624;13.544;2023-02-28T07:55:49;69.03;44.69;77.74;;
37161;Laerm;67371;52.624;13.544;2023-02-28T07:58:15;68.54;48.57;85.24;;
37161;Laerm;67371;52.624;13.544;2023-02-28T08:00:40;70.02;49.46;77.33;;
37161;Laerm;67371;52.624;13.544;2023-02-28T08:03:05;67.46;42.09;76.86;;
37161;Laerm;67371;52.624;13.544;2023-02-28T08:05:30;67.95;40.67;81.84;;
37161;Laerm;67371;52.624;13.544;2023-02-28T08:07:56;67.06;39.34;76.00;;
37161;Laerm;67371;52.624;13.544;2023-02-28T08:10:21;67.93;39.88;79.08;;
37161;Laerm;67371;52.624;13.544;2023-02-28T08:12:46;68.84;45.74;80.68;;
37161;Laerm;67371;52.624;13.544;2023-02-28T08:15:11;68.16;40.43;80.81;;
37161;Laerm;67371;52.624;13.544;2023-02-28T08:17:37;67.56;37.92;76.14;;
37161;Laerm;67371;52.624;13.544;2023-02-28T08:20:02;66.59;36.20;76.69;;
37161;Laerm;67371;52.624;13.544;2023-02-28T08:22:28;67.85;37.62;76.60;;
37161;Laerm;67371;52.624;13.544;2023-02-28T08:24:54;67.71;41.21;77.27;;
37161;Laerm;67371;52.624;13.544;2023-02-28T08:27:19;71.56;43.97;87.78;;
37161;Laerm;67371;52.624;13.544;2023-02-28T08:29:44;69.14;44.49;77.07;;
37161;Laerm;67371;52.624;13.544;2023-02-28T08:32:09;69.23;41.56;78.84;;
37161;Laerm;67371;52.624;13.544;2023-02-28T08:34:35;63.33;37.30;74.45;;
37161;Laerm;67371;52.624;13.544;2023-02-28T08:37:00;68.07;40.90;77.53;;
37161;Laerm;67371;52.624;13.544;2023-02-28T08:39:25;67.73;42.50;77.55;;
37161;Laerm;67371;52.624;13.544;2023-02-28T08:41:50;69.11;40.15;77.66;;
37161;Laerm;67371;52.624;13.544;2023-02-28T08:44:15;66.46;41.55;78.38;;
37161;Laerm;67371;52.624;13.544;2023-02-28T08:46:41;68.50;47.44;79.08;;
37161;Laerm;67371;52.624;13.544;2023-02-28T08:49:06;64.98;39.63;77.08;;
37161;Laerm;67371;52.624;13.544;2023-02-28T08:51:32;69.02;40.79;76.80;;
37161;Laerm;67371;52.624;13.544;2023-02-28T08:54:00;67.76;42.48;79.53;;
37161;Laerm;67371;52.624;13.544;2023-02-28T08:56:26;67.59;41.26;76.80;;
37161;Laerm;67371;52.624;13.544;2023-02-28T08:58:52;67.17;45.44;74.30;;
37161;Laerm;67371;52.624;13.544;2023-02-28T09:01:21;66.18;43.71;76.27;;
37161;Laerm;67371;52.624;13.544;2023-02-28T09:03:47;70.26;39.33;84.46;;
37161;Laerm;67371;52.624;13.544;2023-02-28T09:06:13;68.85;40.12;77.66;;
37161;Laerm;67371;52.624;13.544;2023-02-28T09:08:38;86.29;40.16;107.85;;
37161;Laerm;67371;52.624;13.544;2023-02-28T09:11:04;79.64;40.41;102.13;;
37161;Laerm;67371;52.624;13.544;2023-02-28T09:13:30;69.14;44.17;78.97;;
37161;Laerm;67371;52.624;13.544;2023-02-28T09:15:58;68.71;40.82;80.76;;
37161;Laerm;67371;52.624;13.544;2023-02-28T09:18:24;68.14;46.10;75.68;;
37161;Laerm;67371;52.624;13.544;2023-02-28T09:20:52;69.83;37.99;79.20;;
37161;Laerm;67371;52.624;13.544;2023-02-28T09:23:17;67.16;40.26;77.95;;
37161;Laerm;67371;52.624;13.544;2023-02-28T09:26:00;69.00;47.11;77.94;;
37161;Laerm;67371;52.624;13.544;2023-02-28T09:28:26;68.02;40.05;76.10;;
37161;Laerm;67371;52.624;13.544;2023-02-28T09:30:52;68.12;42.38;78.33;;
37161;Laerm;67371;52.624;13.544;2023-02-28T09:33:18;67.25;36.06;76.89;;
37161;Laerm;67371;52.624;13.544;2023-02-28T09:35:49;69.61;44.57;79.71;;
37161;Laerm;67371;52.624;13.544;2023-02-28T09:38:15;67.94;36.93;79.93;;
37161;Laerm;67371;52.624;13.544;2023-02-28T09:40:47;68.26;39.17;77.23;;
37161;Laerm;67371;52.624;13.544;2023-02-28T09:43:14;66.36;35.28;75.61;;
37161;Laerm;67371;52.624;13.544;2023-02-28T09:45:40;68.59;46.21;77.78;;
37161;Laerm;67371;52.624;13.544;2023-02-28T09:48:10;66.79;41.74;77.38;;
37161;Laerm;67371;52.624;13.544;2023-02-28T09:50:45;67.66;35.80;80.57;;
37161;Laerm;67371;52.624;13.544;2023-02-28T09:55:42;68.69;40.38;78.05;;
37161;Laerm;67371;52.624;13.544;2023-02-28T09:58:18;68.65;45.94;76.71;;
37161;Laerm;67371;52.624;13.544;2023-02-28T10:00:46;65.62;36.68;76.10;;
37161;Laerm;67371;52.624;13.544;2023-02-28T10:08:27;66.90;43.98;78.10;;
37161;Laerm;67371;52.624;13.544;2023-02-28T10:10:58;68.64;43.08;80.59;;
37161;Laerm;67371;52.624;13.544;2023-02-28T10:16:08;68.07;36.52;77.31;;
37161;Laerm;67371;52.624;13.544;2023-02-28T10:18:39;67.46;40.10;76.41;;
37161;Laerm;67371;52.624;13.544;2023-02-28T10:21:06;67.28;41.46;75.81;;
37161;Laerm;67371;52.624;13.544;2023-02-28T10:23:34;67.74;38.29;78.85;;
37161;Laerm;67371;52.624;13.544;2023-02-28T10:26:08;67.00;38.08;77.11;;
37161;Laerm;67371;52.624;13.544;2023-02-28T10:28:36;68.11;35.95;81.85;;
37161;Laerm;67371;52.624;13.544;2023-02-28T10:31:01;67.81;36.86;79.48;;
37161;Laerm;67371;52.624;13.544;2023-02-28T10:35:52;67.69;44.64;79.46;;
37161;Laerm;67371;52.624;13.544;2023-02-28T10:38:19;65.39;36.81;76.58;;
37161;Laerm;67371;52.624;13.544;2023-02-28T10:40:45;68.71;41.80;78.73;;
37161;Laerm;67371;52.624;13.544;2023-02-28T10:45:39;68.05;37.29;75.79;;
37161;Laerm;67371;52.624;13.544;2023-02-28T10:50:43;66.91;40.35;76.88;;
37161;Laerm;67371;52.624;13.544;2023-02-28T10:53:28;64.92;39.33;78.03;;
37161;Laerm;67371;52.624;13.544;2023-02-28T10:56:01;68.54;37.84;77.84;;
37161;Laerm;67371;52.624;13.544;2023-02-28T10:58:32;64.12;36.85;75.04;;
37161;Laerm;67371;52.624;13.544;2023-02-28T11:01:10;68.74;42.18;79.88;;
37161;Laerm;67371;52.624;13.544;2023-02-28T11:03:37;65.19;35.34;75.60;;
37161;Laerm;67371;52.624;13.544;2023-02-28T11:06:19;65.71;42.33;78.27;;
37161;Laerm;67371;52.624;13.544;2023-02-28T11:08:50;67.92;37.04;79.25;;
37161;Laerm;67371;52.624;13.544;2023-02-28T11:11:16;67.21;49.40;78.44;;
37161;Laerm;67371;52.624;13.544;2023-02-28T11:13:42;68.21;42.39;77.75;;
37161;Laerm;67371;52.624;13.544;2023-02-28T11:16:09;68.72;39.04;78.16;;
37161;Laerm;67371;52.624;13.544;2023-02-28T11:18:49;67.19;38.07;79.50;;
37161;Laerm;67371;52.624;13.544;2023-02-28T11:21:16;67.68;39.86;79.99;;
37161;Laerm;67371;52.624;13.544;2023-02-28T11:23:42;70.64;41.00;88.45;;
37161;Laerm;67371;52.624;13.544;2023-02-28T11:26:08;66.36;40.28;76.89;;
37161;Laerm;67371;52.624;13.544;2023-02-28T11:28:37;66.88;39.35;77.20;;
37161;Laerm;67371;52.624;13.544;2023-02-28T11:36:16;67.91;36.22;78.82;;
37161;Laerm;67371;52.624;13.544;2023-02-28T11:38:42;67.57;41.68;78.86;;
37161;Laerm;67371;52.624;13.544;2023-02-28T11:41:57;67.44;37.79;76.91;;
37161;Laerm;67371;52.624;13.544;2023-02-28T11:46:36;66.04;39.42;76.23;;
37161;Laerm;67371;52.624;13.544;2023-02-28T11:51:47;67.09;43.55;77.08;;
37161;Laerm;67371;52.624;13.544;2023-02-28T11:54:21;67.91;38.35;80.07;;
37161;Laerm;67371;52.624;13.544;2023-02-28T12:07:16;68.54;46.34;79.00;;
37161;Laerm;67371;52.624;13.544;2023-02-28T12:22:43;67.59;41.35;81.42;;
37161;Laerm;67371;52.624;13.544;2023-02-28T12:25:30;66.45;40.40;80.43;;
37161;Laerm;67371;52.624;13.544;2023-02-28T12:28:01;69.90;44.08;83.64;;
37161;Laerm;67371;52.624;13.544;2023-02-28T12:30:28;66.04;39.99;77.93;;
37161;Laerm;67371;52.624;13.544;2023-02-28T12:32:56;66.51;39.93;79.22;;
37161;Laerm;67371;52.624;13.544;2023-02-28T12:35:28;67.12;38.12;76.65;;
37161;Laerm;67371;52.624;13.544;2023-02-28T12:38:05;65.85;43.75;75.28;;
37161;Laerm;67371;52.624;13.544;2023-02-28T12:43:06;67.33;45.32;74.69;;
37161;Laerm;67371;52.624;13.544;2023-02-28T12:48:11;67.57;37.76;76.66;;
37161;Laerm;67371;52.624;13.544;2023-02-28T12:50:38;67.02;35.27;75.18;;
37161;Laerm;67371;52.624;13.544;2023-02-28T12:58:28;66.41;36.42;77.17;;
37161;Laerm;67371;52.624;13.544;2023-02-28T13:03:29;65.63;36.84;77.88;;
37161;Laerm;67371;52.624;13.544;2023-02-28T13:10:58;68.06;49.52;78.52;;
37161;Laerm;67371;52.624;13.544;2023-02-28T13:13:24;68.83;51.58;76.86;;
37161;Laerm;67371;52.624;13.544;2023-02-28T13:18:30;67.58;40.41;76.24;;
37161;Laerm;67371;52.624;13.544;2023-02-28T13:20:55;69.95;50.22;80.45;;
37161;Laerm;67371;52.624;13.544;2023-02-28T13:23:41;68.10;41.84;80.26;;
37161;Laerm;67371;52.624;13.544;2023-02-28T13:26:11;67.74;39.62;77.61;;
37161;Laerm;67371;52.624;13.544;2023-02-28T13:28:57;68.28;41.08;83.87;;
37161;Laerm;67371;52.624;13.544;2023-02-28T13:31:23;67.78;42.91;77.73;;
37161;Laerm;67371;52.624;13.544;2023-02-28T13:38:46;68.50;50.55;79.12;;
37161;Laerm;67371;52.624;13.544;2023-02-28T13:44:06;70.19;43.61;86.55;;
37161;Laerm;67371;52.624;13.544;2023-02-28T13:46:32;68.06;41.68;77.77;;
37161;Laerm;67371;52.624;13.544;2023-02-28T13:51:44;68.74;41.89;78.40;;
37161;Laerm;67371;52.624;13.544;2023-02-28T13:54:16;68.03;43.48;78.60;;
37161;Laerm;67371;52.624;13.544;2023-02-28T13:57:03;67.53;41.07;77.00;;
37161;Laerm;67371;52.624;13.544;2023-02-28T13:59:37;68.18;39.14;77.94;;
37161;Laerm;67371;52.624;13.544;2023-02-28T14:07:03;67.70;44.39;77.03;;
37161;Laerm;67371;52.624;13.544;2023-02-28T14:09:33;67.60;37.93;75.28;;
37161;Laerm;67371;52.624;13.544;2023-02-28T14:13:01;69.46;49.05;78.17;;
37161;Laerm;67371;52.624;13.544;2023-02-28T14:14:53;69.19;43.83;80.09;;
37161;Laerm;67371;52.624;13.544;2023-02-28T14:17:19;68.34;50.96;75.41;;
37161;Laerm;67371;52.624;13.544;2023-02-28T14:19:45;69.00;43.98;83.89;;
37161;Laerm;67371;52.624;13.544;2023-02-28T14:24:59;67.99;48.23;74.89;;
37161;Laerm;67371;52.624;13.544;2023-02-28T14:35:43;69.40;44.01;77.34;;
37161;Laerm;67371;52.624;13.544;2023-02-28T14:38:18;69.57;43.95;80.03;;
37161;Laerm;67371;52.624;13.544;2023-02-28T14:40:46;69.04;48.65;77.71;;
37161;Laerm;67371;52.624;13.544;2023-02-28T14:43:19;69.82;45.83;80.54;;
37161;Laerm;67371;52.624;13.544;2023-02-28T14:45:48;69.50;45.07;77.80;;
37161;Laerm;67371;52.624;13.544;2023-02-28T14:48:14;69.51;50.26;82.84;;
37161;Laerm;67371;52.624;13.544;2023-02-28T14:50:40;68.32;41.10;77.42;;
37161;Laerm;67371;52.624;13.544;2023-02-28T14:53:15;68.15;42.14;79.70;;
37161;Laerm;67371;52.624;13.544;2023-02-28T14:55:46;68.56;44.15;77.55;;
37161;Laerm;67371;52.624;13.544;2023-02-28T14:58:21;67.74;41.32;75.65;;
37161;Laerm;67371;52.624;13.544;2023-02-28T15:00:47;68.72;46.15;78.78;;
37161;Laerm;67371;52.624;13.544;2023-02-28T15:03:17;80.28;39.98;101.49;;
37161;Laerm;67371;52.624;13.544;2023-02-28T15:05:44;69.52;44.21;80.75;;
37161;Laerm;67371;52.624;13.544;2023-02-28T15:08:16;69.10;44.60;77.31;;
37161;Laerm;67371;52.624;13.544;2023-02-28T15:10:42;69.39;46.74;77.77;;
37161;Laerm;67371;52.624;13.544;2023-02-28T15:13:13;67.22;43.22;77.00;;
37161;Laerm;67371;52.624;13.544;2023-02-28T15:18:05;68.26;48.39;76.76;;
37161;Laerm;67371;52.624;13.544;2023-02-28T15:20:32;69.49;47.44;78.55;;
37161;Laerm;67371;52.624;13.544;2023-02-28T15:22:57;67.96;37.11;76.77;;
37161;Laerm;67371;52.624;13.544;2023-02-28T15:25:23;68.86;39.69;77.15;;
37161;Laerm;67371;52.624;13.544;2023-02-28T15:27:50;68.86;49.61;77.27;;
37161;Laerm;67371;52.624;13.544;2023-02-28T15:30:28;69.72;50.61;80.30;;
37161;Laerm;67371;52.624;13.544;2023-02-28T15:35:29;67.86;37.60;76.18;;
37161;Laerm;67371;52.624;13.544;2023-02-28T15:40:36;69.33;42.21;84.48;;
37161;Laerm;67371;52.624;13.544;2023-02-28T15:43:06;69.40;41.43;79.14;;
37161;Laerm;67371;52.624;13.544;2023-02-28T15:45:33;69.47;44.98;76.53;;
37161;Laerm;67371;52.624;13.544;2023-02-28T15:48:02;68.77;39.76;76.80;;
37161;Laerm;67371;52.624;13.544;2023-02-28T15:50:28;69.13;49.01;79.17;;
37161;Laerm;67371;52.624;13.544;2023-02-28T15:52:53;68.10;46.29;80.15;;